sensor_id;sensor_type;location;lat;lon;timestamp;P1;durP1;ratioP1;P2;durP2;ratioP2
55589;SDS011;41452;42.780;23.116;2023-05-23T00:02:03;4.47;;;3.00;;
55589;SDS011;41452;42.780;23.116;2023-05-23T00:04:32;8.18;;;2.80;;
55589;SDS011;41452;42.780;23.116;2023-05-23T00:06:57;4.25;;;2.83;;
55589;SDS011;41452;42.780;23.116;2023-05-23T00:09:23;4.88;;;3.13;;
55589;SDS011;41452;42.780;23.116;2023-05-23T00:11:48;6.75;;;2.88;;
55589;SDS011;41452;42.780;23.116;2023-05-23T00:14:14;8.00;;;2.70;;
55589;SDS011;41452;42.780;23.116;2023-05-23T00:16:40;5.85;;;2.70;;
55589;SDS011;41452;42.780;23.116;2023-05-23T00:19:06;4.22;;;2.60;;
55589;SDS011;41452;42.780;23.116;2023-05-23T00:21:32;4.50;;;2.78;;
55589;SDS011;41452;42.780;23.116;2023-05-23T00:23:58;4.43;;;2.80;;
55589;SDS011;41452;42.780;23.116;2023-05-23T00:26:23;5.43;;;2.70;;
55589;SDS011;41452;42.780;23.116;2023-05-23T00:28:49;4.15;;;2.88;;
55589;SDS011;41452;42.780;23.116;2023-05-23T00:31:14;3.88;;;2.80;;
55589;SDS011;41452;42.780;23.116;2023-05-23T00:33:39;4.20;;;3.05;;
55589;SDS011;41452;42.780;23.116;2023-05-23T00:36:05;5.53;;;3.08;;
55589;SDS011;41452;42.780;23.116;2023-05-23T00:38:30;4.35;;;3.03;;
55589;SDS011;41452;42.780;23.116;2023-05-23T00:40:56;5.10;;;3.30;;
55589;SDS011;41452;42.780;23.116;2023-05-23T00:43:21;5.82;;;3.13;;
55589;SDS011;41452;42.780;23.116;2023-05-23T00:45:47;4.80;;;3.38;;
55589;SDS011;41452;42.780;23.116;2023-05-23T00:48:12;5.38;;;3.45;;
55589;SDS011;41452;42.780;23.116;2023-05-23T00:50:38;7.03;;;2.95;;
55589;SDS011;41452;42.780;23.116;2023-05-23T00:53:04;14.27;;;3.40;;
55589;SDS011;41452;42.780;23.116;2023-05-23T00:55:30;5.40;;;3.35;;
55589;SDS011;41452;42.780;23.116;2023-05-23T00:57:56;4.07;;;2.75;;
55589;SDS011;41452;42.780;23.116;2023-05-23T01:00:23;6.22;;;3.58;;
55589;SDS011;41452;42.780;23.116;2023-05-23T01:02:50;5.63;;;3.55;;
55589;SDS011;41452;42.780;23.116;2023-05-23T01:05:16;7.90;;;3.22;;
55589;SDS011;41452;42.780;23.116;2023-05-23T01:07:42;5.55;;;2.95;;
55589;SDS011;41452;42.780;23.116;2023-05-23T01:10:08;4.65;;;3.00;;
55589;SDS011;41452;42.780;23.116;2023-05-23T01:15:11;4.72;;;3.10;;
55589;SDS011;41452;42.780;23.116;2023-05-23T01:17:54;6.10;;;3.28;;
55589;SDS011;41452;42.780;23.116;2023-05-23T01:20:39;5.85;;;3.00;;
55589;SDS011;41452;42.780;23.116;2023-05-23T01:29:13;8.15;;;3.40;;
55589;SDS011;41452;42.780;23.116;2023-05-23T01:32:04;6.40;;;2.88;;
55589;SDS011;41452;42.780;23.116;2023-05-23T01:34:35;4.32;;;2.53;;
55589;SDS011;41452;42.780;23.116;2023-05-23T01:37:02;4.82;;;2.90;;
55589;SDS011;41452;42.780;23.116;2023-05-23T01:39:34;5.88;;;3.22;;
55589;SDS011;41452;42.780;23.116;2023-05-23T01:41:59;4.70;;;2.60;;
55589;SDS011;41452;42.780;23.116;2023-05-23T01:44:25;5.97;;;2.83;;
55589;SDS011;41452;42.780;23.116;2023-05-23T01:46:50;4.05;;;2.80;;
55589;SDS011;41452;42.780;23.116;2023-05-23T01:49:16;5.80;;;2.38;;
55589;SDS011;41452;42.780;23.116;2023-05-23T01:51:42;4.88;;;2.47;;
55589;SDS011;41452;42.780;23.116;2023-05-23T01:54:09;3.95;;;2.75;;
55589;SDS011;41452;42.780;23.116;2023-05-23T01:56:36;6.03;;;2.30;;
55589;SDS011;41452;42.780;23.116;2023-05-23T01:59:01;4.10;;;2.22;;
55589;SDS011;41452;42.780;23.116;2023-05-23T02:01:27;5.35;;;2.95;;
55589;SDS011;41452;42.780;23.116;2023-05-23T02:03:53;5.85;;;2.60;;
55589;SDS011;41452;42.780;23.116;2023-05-23T02:06:19;5.93;;;2.60;;
55589;SDS011;41452;42.780;23.116;2023-05-23T02:08:44;4.75;;;2.60;;
55589;SDS011;41452;42.780;23.116;2023-05-23T02:11:10;3.90;;;2.40;;
55589;SDS011;41452;42.780;23.116;2023-05-23T02:13:35;3.78;;;2.10;;
55589;SDS011;41452;42.780;23.116;2023-05-23T02:16:01;3.85;;;2.38;;
55589;SDS011;41452;42.780;23.116;2023-05-23T02:18:26;7.07;;;2.25;;
55589;SDS011;41452;42.780;23.116;2023-05-23T02:20:53;3.50;;;1.95;;
55589;SDS011;41452;42.780;23.116;2023-05-23T02:23:20;4.35;;;1.98;;
55589;SDS011;41452;42.780;23.116;2023-05-23T02:25:45;3.45;;;2.10;;
55589;SDS011;41452;42.780;23.116;2023-05-23T02:28:11;4.90;;;2.40;;
55589;SDS011;41452;42.780;23.116;2023-05-23T02:30:36;4.72;;;2.00;;
55589;SDS011;41452;42.780;23.116;2023-05-23T02:33:05;3.17;;;1.80;;
55589;SDS011;41452;42.780;23.116;2023-05-23T02:59:58;3.92;;;2.28;;
55589;SDS011;41452;42.780;23.116;2023-05-23T03:02:24;4.70;;;2.13;;
55589;SDS011;41452;42.780;23.116;2023-05-23T03:04:49;4.35;;;1.92;;
55589;SDS011;41452;42.780;23.116;2023-05-23T03:07:15;5.93;;;2.00;;
55589;SDS011;41452;42.780;23.116;2023-05-23T03:09:40;5.75;;;1.75;;
55589;SDS011;41452;42.780;23.116;2023-05-23T03:12:06;4.60;;;2.00;;
55589;SDS011;41452;42.780;23.116;2023-05-23T03:14:31;3.72;;;2.47;;
55589;SDS011;41452;42.780;23.116;2023-05-23T03:16:56;3.75;;;2.20;;
55589;SDS011;41452;42.780;23.116;2023-05-23T03:19:22;2.97;;;2.00;;
55589;SDS011;41452;42.780;23.116;2023-05-23T03:21:48;4.28;;;2.22;;
55589;SDS011;41452;42.780;23.116;2023-05-23T03:24:14;4.43;;;2.20;;
55589;SDS011;41452;42.780;23.116;2023-05-23T03:26:40;5.78;;;2.38;;
55589;SDS011;41452;42.780;23.116;2023-05-23T03:29:05;7.03;;;1.83;;
55589;SDS011;41452;42.780;23.116;2023-05-23T03:31:31;5.63;;;1.92;;
55589;SDS011;41452;42.780;23.116;2023-05-23T03:33:56;4.13;;;1.73;;
55589;SDS011;41452;42.780;23.116;2023-05-23T03:36:22;7.43;;;2.60;;
55589;SDS011;41452;42.780;23.116;2023-05-23T03:38:50;3.78;;;2.53;;
55589;SDS011;41452;42.780;23.116;2023-05-23T03:41:17;3.97;;;2.33;;
55589;SDS011;41452;42.780;23.116;2023-05-23T03:43:42;4.65;;;2.60;;
55589;SDS011;41452;42.780;23.116;2023-05-23T03:46:08;9.75;;;2.30;;
55589;SDS011;41452;42.780;23.116;2023-05-23T03:48:33;11.07;;;2.70;;
55589;SDS011;41452;42.780;23.116;2023-05-23T03:50:58;3.55;;;2.45;;
55589;SDS011;41452;42.780;23.116;2023-05-23T03:53:24;5.43;;;2.08;;
55589;SDS011;41452;42.780;23.116;2023-05-23T03:55:49;5.15;;;2.47;;
55589;SDS011;41452;42.780;23.116;2023-05-23T03:58:17;3.92;;;2.50;;
55589;SDS011;41452;42.780;23.116;2023-05-23T04:00:43;3.05;;;2.00;;
55589;SDS011;41452;42.780;23.116;2023-05-23T04:03:09;5.05;;;2.40;;
55589;SDS011;41452;42.780;23.116;2023-05-23T04:05:35;6.38;;;2.83;;
55589;SDS011;41452;42.780;23.116;2023-05-23T04:08:00;4.80;;;2.78;;
55589;SDS011;41452;42.780;23.116;2023-05-23T04:10:26;5.68;;;2.70;;
55589;SDS011;41452;42.780;23.116;2023-05-23T04:12:51;4.63;;;2.90;;
55589;SDS011;41452;42.780;23.116;2023-05-23T04:15:17;4.75;;;2.70;;
55589;SDS011;41452;42.780;23.116;2023-05-23T04:17:45;6.63;;;3.80;;
55589;SDS011;41452;42.780;23.116;2023-05-23T04:20:10;13.68;;;7.25;;
55589;SDS011;41452;42.780;23.116;2023-05-23T04:22:36;13.25;;;6.32;;
55589;SDS011;41452;42.780;23.116;2023-05-23T04:37:17;25.40;;;7.80;;
55589;SDS011;41452;42.780;23.116;2023-05-23T04:39:46;24.80;;;8.55;;
55589;SDS011;41452;42.780;23.116;2023-05-23T04:42:12;28.08;;;7.63;;
55589;SDS011;41452;42.780;23.116;2023-05-23T04:56:08;18.23;;;7.22;;
55589;SDS011;41452;42.780;23.116;2023-05-23T04:58:33;10.00;;;6.88;;
55589;SDS011;41452;42.780;23.116;2023-05-23T05:00:59;16.60;;;6.20;;
55589;SDS011;41452;42.780;23.116;2023-05-23T05:03:24;11.63;;;6.13;;
55589;SDS011;41452;42.780;23.116;2023-05-23T05:05:50;18.77;;;7.00;;
55589;SDS011;41452;42.780;23.116;2023-05-23T05:08:16;11.68;;;6.90;;
55589;SDS011;41452;42.780;23.116;2023-05-23T05:10:43;13.00;;;7.75;;
55589;SDS011;41452;42.780;23.116;2023-05-23T05:13:09;13.65;;;7.30;;
55589;SDS011;41452;42.780;23.116;2023-05-23T05:15:35;13.98;;;7.60;;
55589;SDS011;41452;42.780;23.116;2023-05-23T05:18:00;12.88;;;7.30;;
55589;SDS011;41452;42.780;23.116;2023-05-23T05:20:25;10.25;;;7.00;;
55589;SDS011;41452;42.780;23.116;2023-05-23T05:22:54;13.90;;;7.28;;
55589;SDS011;41452;42.780;23.116;2023-05-23T05:25:21;12.48;;;7.60;;
55589;SDS011;41452;42.780;23.116;2023-05-23T05:27:47;11.88;;;7.35;;
55589;SDS011;41452;42.780;23.116;2023-05-23T05:30:12;14.88;;;7.63;;
55589;SDS011;41452;42.780;23.116;2023-05-23T05:32:38;11.50;;;7.47;;
55589;SDS011;41452;42.780;23.116;2023-05-23T05:35:03;13.32;;;7.53;;
55589;SDS011;41452;42.780;23.116;2023-05-23T05:37:29;12.05;;;7.30;;
55589;SDS011;41452;42.780;23.116;2023-05-23T05:39:55;9.55;;;6.47;;
55589;SDS011;41452;42.780;23.116;2023-05-23T05:42:20;13.35;;;7.13;;
55589;SDS011;41452;42.780;23.116;2023-05-23T05:44:46;13.02;;;7.20;;
55589;SDS011;41452;42.780;23.116;2023-05-23T05:47:12;11.18;;;6.75;;
55589;SDS011;41452;42.780;23.116;2023-05-23T05:49:38;14.60;;;7.95;;
55589;SDS011;41452;42.780;23.116;2023-05-23T05:52:05;10.85;;;7.22;;
55589;SDS011;41452;42.780;23.116;2023-05-23T05:54:31;15.05;;;8.00;;
55589;SDS011;41452;42.780;23.116;2023-05-23T05:56:56;14.45;;;9.20;;
55589;SDS011;41452;42.780;23.116;2023-05-23T05:59:21;15.55;;;8.90;;
55589;SDS011;41452;42.780;23.116;2023-05-23T06:01:47;14.63;;;8.50;;
55589;SDS011;41452;42.780;23.116;2023-05-23T06:04:15;13.63;;;7.97;;
55589;SDS011;41452;42.780;23.116;2023-05-23T06:06:40;14.35;;;8.95;;
55589;SDS011;41452;42.780;23.116;2023-05-23T06:09:06;15.73;;;9.05;;
55589;SDS011;41452;42.780;23.116;2023-05-23T06:11:31;15.35;;;8.90;;
55589;SDS011;41452;42.780;23.116;2023-05-23T06:13:57;16.67;;;9.98;;
55589;SDS011;41452;42.780;23.116;2023-05-23T06:16:22;15.07;;;8.55;;
55589;SDS011;41452;42.780;23.116;2023-05-23T06:18:47;16.70;;;9.35;;
55589;SDS011;41452;42.780;23.116;2023-05-23T06:21:13;19.15;;;10.60;;
55589;SDS011;41452;42.780;23.116;2023-05-23T06:23:38;18.25;;;10.68;;
55589;SDS011;41452;42.780;23.116;2023-05-23T06:26:03;19.77;;;10.07;;
55589;SDS011;41452;42.780;23.116;2023-05-23T06:28:32;17.98;;;10.27;;
55589;SDS011;41452;42.780;23.116;2023-05-23T06:30:57;19.40;;;10.88;;
55589;SDS011;41452;42.780;23.116;2023-05-23T06:33:23;17.23;;;10.15;;
55589;SDS011;41452;42.780;23.116;2023-05-23T06:35:48;17.50;;;10.60;;
55589;SDS011;41452;42.780;23.116;2023-05-23T06:40:54;15.90;;;10.23;;
55589;SDS011;41452;42.780;23.116;2023-05-23T06:43:19;20.50;;;10.02;;
55589;SDS011;41452;42.780;23.116;2023-05-23T06:45:45;20.70;;;11.43;;
55589;SDS011;41452;42.780;23.116;2023-05-23T06:48:11;16.10;;;9.80;;
55589;SDS011;41452;42.780;23.116;2023-05-23T06:50:37;17.20;;;9.73;;
55589;SDS011;41452;42.780;23.116;2023-05-23T06:53:03;17.17;;;9.73;;
55589;SDS011;41452;42.780;23.116;2023-05-23T06:55:28;17.17;;;10.45;;
55589;SDS011;41452;42.780;23.116;2023-05-23T06:57:54;15.27;;;9.52;;
55589;SDS011;41452;42.780;23.116;2023-05-23T07:00:20;16.40;;;10.55;;
55589;SDS011;41452;42.780;23.116;2023-05-23T07:02:46;19.35;;;10.00;;
55589;SDS011;41452;42.780;23.116;2023-05-23T07:05:15;16.83;;;9.63;;
55589;SDS011;41452;42.780;23.116;2023-05-23T07:07:41;16.65;;;9.80;;
55589;SDS011;41452;42.780;23.116;2023-05-23T07:10:06;18.88;;;10.05;;
55589;SDS011;41452;42.780;23.116;2023-05-23T07:12:32;15.20;;;9.02;;
55589;SDS011;41452;42.780;23.116;2023-05-23T07:14:58;16.88;;;10.05;;
55589;SDS011;41452;42.780;23.116;2023-05-23T07:17:23;18.77;;;10.60;;
55589;SDS011;41452;42.780;23.116;2023-05-23T07:19:48;16.95;;;10.38;;
55589;SDS011;41452;42.780;23.116;2023-05-23T07:22:14;14.48;;;9.65;;
55589;SDS011;41452;42.780;23.116;2023-05-23T07:24:39;14.50;;;9.32;;
55589;SDS011;41452;42.780;23.116;2023-05-23T07:27:05;14.93;;;10.27;;
55589;SDS011;41452;42.780;23.116;2023-05-23T07:29:31;14.35;;;9.50;;
55589;SDS011;41452;42.780;23.116;2023-05-23T07:31:56;14.80;;;9.25;;
55589;SDS011;41452;42.780;23.116;2023-05-23T07:34:23;16.35;;;10.10;;
55589;SDS011;41452;42.780;23.116;2023-05-23T07:36:48;13.50;;;8.88;;
55589;SDS011;41452;42.780;23.116;2023-05-23T07:39:14;14.75;;;9.68;;
55589;SDS011;41452;42.780;23.116;2023-05-23T07:41:39;15.82;;;9.40;;
55589;SDS011;41452;42.780;23.116;2023-05-23T07:44:05;14.43;;;9.23;;
55589;SDS011;41452;42.780;23.116;2023-05-23T07:46:31;17.55;;;9.30;;
55589;SDS011;41452;42.780;23.116;2023-05-23T07:48:56;13.13;;;7.85;;
55589;SDS011;41452;42.780;23.116;2023-05-23T07:51:21;15.55;;;7.68;;
55589;SDS011;41452;42.780;23.116;2023-05-23T07:53:47;11.73;;;8.30;;
55589;SDS011;41452;42.780;23.116;2023-05-23T07:56:12;14.10;;;8.95;;
55589;SDS011;41452;42.780;23.116;2023-05-23T07:58:38;13.30;;;8.40;;
55589;SDS011;41452;42.780;23.116;2023-05-23T08:01:03;14.27;;;8.20;;
55589;SDS011;41452;42.780;23.116;2023-05-23T08:03:29;13.65;;;8.02;;
55589;SDS011;41452;42.780;23.116;2023-05-23T08:05:54;14.60;;;7.50;;
55589;SDS011;41452;42.780;23.116;2023-05-23T08:08:20;11.55;;;7.40;;
55589;SDS011;41452;42.780;23.116;2023-05-23T08:10:45;11.18;;;6.57;;
55589;SDS011;41452;42.780;23.116;2023-05-23T08:13:11;10.73;;;7.18;;
55589;SDS011;41452;42.780;23.116;2023-05-23T08:15:37;10.48;;;7.13;;
55589;SDS011;41452;42.780;23.116;2023-05-23T08:18:03;10.75;;;6.15;;
55589;SDS011;41452;42.780;23.116;2023-05-23T08:20:28;10.10;;;5.85;;
55589;SDS011;41452;42.780;23.116;2023-05-23T08:23:01;9.52;;;6.47;;
55589;SDS011;41452;42.780;23.116;2023-05-23T08:25:27;9.73;;;6.13;;
55589;SDS011;41452;42.780;23.116;2023-05-23T08:27:54;12.80;;;6.60;;
55589;SDS011;41452;42.780;23.116;2023-05-23T08:30:21;8.73;;;5.72;;
55589;SDS011;41452;42.780;23.116;2023-05-23T08:32:47;9.85;;;5.97;;
55589;SDS011;41452;42.780;23.116;2023-05-23T08:35:12;9.90;;;6.40;;
55589;SDS011;41452;42.780;23.116;2023-05-23T08:37:38;9.20;;;6.03;;
55589;SDS011;41452;42.780;23.116;2023-05-23T08:40:05;10.38;;;6.03;;
55589;SDS011;41452;42.780;23.116;2023-05-23T08:42:32;10.88;;;6.53;;
55589;SDS011;41452;42.780;23.116;2023-05-23T08:44:58;9.82;;;6.47;;
55589;SDS011;41452;42.780;23.116;2023-05-23T08:47:23;10.73;;;5.90;;
55589;SDS011;41452;42.780;23.116;2023-05-23T08:49:49;15.90;;;5.90;;
55589;SDS011;41452;42.780;23.116;2023-05-23T08:52:19;11.32;;;6.80;;
55589;SDS011;41452;42.780;23.116;2023-05-23T08:54:49;12.00;;;6.45;;
55589;SDS011;41452;42.780;23.116;2023-05-23T08:57:15;9.27;;;6.30;;
55589;SDS011;41452;42.780;23.116;2023-05-23T08:59:41;10.35;;;5.65;;
55589;SDS011;41452;42.780;23.116;2023-05-23T09:02:07;8.23;;;5.45;;
55589;SDS011;41452;42.780;23.116;2023-05-23T09:04:36;11.85;;;6.25;;
55589;SDS011;41452;42.780;23.116;2023-05-23T09:07:01;8.77;;;5.55;;
55589;SDS011;41452;42.780;23.116;2023-05-23T09:09:26;7.00;;;4.53;;
55589;SDS011;41452;42.780;23.116;2023-05-23T09:11:53;9.48;;;5.75;;
55589;SDS011;41452;42.780;23.116;2023-05-23T09:14:19;6.80;;;4.75;;
55589;SDS011;41452;42.780;23.116;2023-05-23T09:16:45;8.50;;;5.30;;
55589;SDS011;41452;42.780;23.116;2023-05-23T09:19:14;7.95;;;4.38;;
55589;SDS011;41452;42.780;23.116;2023-05-23T09:21:43;6.90;;;3.90;;
55589;SDS011;41452;42.780;23.116;2023-05-23T09:24:09;6.72;;;4.32;;
55589;SDS011;41452;42.780;23.116;2023-05-23T09:26:35;11.90;;;5.13;;
55589;SDS011;41452;42.780;23.116;2023-05-23T09:29:00;7.65;;;5.05;;
55589;SDS011;41452;42.780;23.116;2023-05-23T09:31:30;7.55;;;4.43;;
55589;SDS011;41452;42.780;23.116;2023-05-23T09:33:56;7.00;;;4.57;;
55589;SDS011;41452;42.780;23.116;2023-05-23T09:36:22;6.95;;;4.40;;
55589;SDS011;41452;42.780;23.116;2023-05-23T09:38:47;7.13;;;4.00;;
55589;SDS011;41452;42.780;23.116;2023-05-23T09:41:13;5.47;;;3.97;;
55589;SDS011;41452;42.780;23.116;2023-05-23T09:44:03;7.78;;;3.95;;
55589;SDS011;41452;42.780;23.116;2023-05-23T09:46:28;7.88;;;4.10;;
55589;SDS011;41452;42.780;23.116;2023-05-23T09:48:54;8.40;;;4.03;;
55589;SDS011;41452;42.780;23.116;2023-05-23T09:51:21;5.60;;;3.70;;
55589;SDS011;41452;42.780;23.116;2023-05-23T09:53:50;9.52;;;4.57;;
55589;SDS011;41452;42.780;23.116;2023-05-23T09:56:17;9.25;;;4.32;;
55589;SDS011;41452;42.780;23.116;2023-05-23T09:58:46;8.55;;;3.60;;
55589;SDS011;41452;42.780;23.116;2023-05-23T10:01:13;8.40;;;3.80;;
55589;SDS011;41452;42.780;23.116;2023-05-23T10:03:43;5.90;;;3.65;;
55589;SDS011;41452;42.780;23.116;2023-05-23T10:09:01;7.80;;;3.78;;
55589;SDS011;41452;42.780;23.116;2023-05-23T10:14:00;8.73;;;4.28;;
55589;SDS011;41452;42.780;23.116;2023-05-23T10:22:09;7.57;;;4.60;;
55589;SDS011;41452;42.780;23.116;2023-05-23T10:24:36;9.10;;;4.97;;
55589;SDS011;41452;42.780;23.116;2023-05-23T10:27:02;10.57;;;5.03;;
55589;SDS011;41452;42.780;23.116;2023-05-23T10:29:27;12.00;;;4.80;;
55589;SDS011;41452;42.780;23.116;2023-05-23T10:31:53;6.50;;;4.25;;
55589;SDS011;41452;42.780;23.116;2023-05-23T10:37:22;7.57;;;3.47;;
55589;SDS011;41452;42.780;23.116;2023-05-23T10:45:38;4.57;;;3.08;;
55589;SDS011;41452;42.780;23.116;2023-05-23T10:48:31;6.63;;;3.53;;
55589;SDS011;41452;42.780;23.116;2023-05-23T10:51:06;9.57;;;3.92;;
55589;SDS011;41452;42.780;23.116;2023-05-23T10:53:36;7.00;;;3.53;;
55589;SDS011;41452;42.780;23.116;2023-05-23T10:56:24;7.10;;;3.97;;
55589;SDS011;41452;42.780;23.116;2023-05-23T10:58:54;8.00;;;3.95;;
55589;SDS011;41452;42.780;23.116;2023-05-23T11:01:20;9.50;;;4.95;;
55589;SDS011;41452;42.780;23.116;2023-05-23T11:09:14;7.88;;;3.38;;
55589;SDS011;41452;42.780;23.116;2023-05-23T11:14:18;7.95;;;3.63;;
55589;SDS011;41452;42.780;23.116;2023-05-23T11:16:45;8.55;;;3.45;;
55589;SDS011;41452;42.780;23.116;2023-05-23T11:21:45;6.18;;;3.17;;
55589;SDS011;41452;42.780;23.116;2023-05-23T11:24:14;7.40;;;3.13;;
55589;SDS011;41452;42.780;23.116;2023-05-23T11:26:50;5.00;;;3.10;;
55589;SDS011;41452;42.780;23.116;2023-05-23T11:29:18;5.65;;;3.03;;
55589;SDS011;41452;42.780;23.116;2023-05-23T11:31:44;5.32;;;2.85;;
55589;SDS011;41452;42.780;23.116;2023-05-23T11:34:10;6.90;;;3.47;;
55589;SDS011;41452;42.780;23.116;2023-05-23T11:36:36;9.38;;;3.35;;
55589;SDS011;41452;42.780;23.116;2023-05-23T11:39:02;6.03;;;3.25;;
55589;SDS011;41452;42.780;23.116;2023-05-23T11:41:29;4.78;;;2.97;;
55589;SDS011;41452;42.780;23.116;2023-05-23T11:43:54;7.43;;;2.95;;
55589;SDS011;41452;42.780;23.116;2023-05-23T11:46:20;4.82;;;2.72;;
55589;SDS011;41452;42.780;23.116;2023-05-23T11:48:46;10.75;;;3.20;;
55589;SDS011;41452;42.780;23.116;2023-05-23T11:51:14;6.93;;;3.53;;
55589;SDS011;41452;42.780;23.116;2023-05-23T11:53:40;9.10;;;2.88;;
55589;SDS011;41452;42.780;23.116;2023-05-23T11:56:06;6.25;;;2.78;;
55589;SDS011;41452;42.780;23.116;2023-05-23T11:58:33;4.10;;;2.72;;
55589;SDS011;41452;42.780;23.116;2023-05-23T12:01:03;4.70;;;2.65;;
55589;SDS011;41452;42.780;23.116;2023-05-23T12:03:33;5.20;;;2.63;;
55589;SDS011;41452;42.780;23.116;2023-05-23T12:05:59;6.30;;;3.20;;
55589;SDS011;41452;42.780;23.116;2023-05-23T12:08:26;5.38;;;3.38;;
55589;SDS011;41452;42.780;23.116;2023-05-23T12:10:52;4.63;;;2.80;;
55589;SDS011;41452;42.780;23.116;2023-05-23T12:13:23;7.78;;;2.80;;
55589;SDS011;41452;42.780;23.116;2023-05-23T12:15:56;5.45;;;2.92;;
55589;SDS011;41452;42.780;23.116;2023-05-23T12:18:24;7.00;;;3.38;;
55589;SDS011;41452;42.780;23.116;2023-05-23T12:20:53;4.45;;;2.80;;
55589;SDS011;41452;42.780;23.116;2023-05-23T12:23:24;7.60;;;3.10;;
55589;SDS011;41452;42.780;23.116;2023-05-23T12:25:51;7.03;;;3.00;;
55589;SDS011;41452;42.780;23.116;2023-05-23T12:28:17;8.05;;;3.17;;
55589;SDS011;41452;42.780;23.116;2023-05-23T12:30:44;4.32;;;2.75;;
55589;SDS011;41452;42.780;23.116;2023-05-23T12:33:10;4.85;;;2.88;;
55589;SDS011;41452;42.780;23.116;2023-05-23T12:35:36;4.43;;;2.75;;
55589;SDS011;41452;42.780;23.116;2023-05-23T12:38:04;4.57;;;2.38;;
55589;SDS011;41452;42.780;23.116;2023-05-23T12:40:31;7.05;;;3.00;;
55589;SDS011;41452;42.780;23.116;2023-05-23T12:42:56;4.97;;;2.50;;
55589;SDS011;41452;42.780;23.116;2023-05-23T12:58:07;5.22;;;3.13;;
55589;SDS011;41452;42.780;23.116;2023-05-23T13:00:32;11.18;;;2.90;;
55589;SDS011;41452;42.780;23.116;2023-05-23T13:02:58;4.57;;;2.65;;
55589;SDS011;41452;42.780;23.116;2023-05-23T13:05:23;4.45;;;2.55;;
55589;SDS011;41452;42.780;23.116;2023-05-23T13:07:49;5.22;;;3.30;;
55589;SDS011;41452;42.780;23.116;2023-05-23T13:10:14;5.93;;;2.92;;
55589;SDS011;41452;42.780;23.116;2023-05-23T13:12:39;8.25;;;3.20;;
55589;SDS011;41452;42.780;23.116;2023-05-23T13:15:06;7.80;;;3.13;;
55589;SDS011;41452;42.780;23.116;2023-05-23T13:17:32;5.75;;;2.97;;
55589;SDS011;41452;42.780;23.116;2023-05-23T13:19:57;5.68;;;3.03;;
55589;SDS011;41452;42.780;23.116;2023-05-23T13:22:23;5.63;;;3.17;;
55589;SDS011;41452;42.780;23.116;2023-05-23T13:24:48;8.73;;;3.10;;
55589;SDS011;41452;42.780;23.116;2023-05-23T13:27:13;6.80;;;3.45;;
55589;SDS011;41452;42.780;23.116;2023-05-23T13:29:39;7.25;;;3.55;;
55589;SDS011;41452;42.780;23.116;2023-05-23T13:32:04;3.70;;;2.50;;
55589;SDS011;41452;42.780;23.116;2023-05-23T13:34:30;8.18;;;3.20;;
55589;SDS011;41452;42.780;23.116;2023-05-23T13:36:55;5.25;;;2.92;;
55589;SDS011;41452;42.780;23.116;2023-05-23T13:39:21;3.97;;;2.78;;
55589;SDS011;41452;42.780;23.116;2023-05-23T13:41:47;6.20;;;2.80;;
55589;SDS011;41452;42.780;23.116;2023-05-23T13:44:13;5.55;;;2.85;;
55589;SDS011;41452;42.780;23.116;2023-05-23T13:46:38;6.72;;;2.95;;
55589;SDS011;41452;42.780;23.116;2023-05-23T13:49:04;8.50;;;2.85;;
55589;SDS011;41452;42.780;23.116;2023-05-23T13:51:29;6.57;;;2.55;;
55589;SDS011;41452;42.780;23.116;2023-05-23T13:53:56;5.00;;;2.95;;
55589;SDS011;41452;42.780;23.116;2023-05-23T13:56:22;6.85;;;2.75;;
55589;SDS011;41452;42.780;23.116;2023-05-23T13:58:48;4.45;;;2.83;;
55589;SDS011;41452;42.780;23.116;2023-05-23T14:01:13;5.38;;;2.53;;
55589;SDS011;41452;42.780;23.116;2023-05-23T14:03:39;6.60;;;3.38;;
55589;SDS011;41452;42.780;23.116;2023-05-23T14:06:04;4.20;;;3.08;;
55589;SDS011;41452;42.780;23.116;2023-05-23T14:08:30;4.00;;;2.63;;
55589;SDS011;41452;42.780;23.116;2023-05-23T14:10:55;6.80;;;3.03;;
55589;SDS011;41452;42.780;23.116;2023-05-23T14:13:21;7.40;;;2.90;;
55589;SDS011;41452;42.780;23.116;2023-05-23T14:15:47;5.93;;;2.70;;
55589;SDS011;41452;42.780;23.116;2023-05-23T14:18:12;6.47;;;2.60;;
55589;SDS011;41452;42.780;23.116;2023-05-23T14:20:38;4.78;;;2.60;;
55589;SDS011;41452;42.780;23.116;2023-05-23T14:23:03;4.70;;;2.92;;
55589;SDS011;41452;42.780;23.116;2023-05-23T14:25:28;3.92;;;2.63;;
55589;SDS011;41452;42.780;23.116;2023-05-23T14:27:54;5.55;;;2.50;;
55589;SDS011;41452;42.780;23.116;2023-05-23T14:30:19;6.03;;;2.60;;
55589;SDS011;41452;42.780;23.116;2023-05-23T14:32:45;4.53;;;2.60;;
55589;SDS011;41452;42.780;23.116;2023-05-23T14:35:10;7.43;;;3.35;;
55589;SDS011;41452;42.780;23.116;2023-05-23T14:37:36;5.72;;;2.75;;
55589;SDS011;41452;42.780;23.116;2023-05-23T14:40:03;7.43;;;2.97;;
55589;SDS011;41452;42.780;23.116;2023-05-23T14:42:29;4.40;;;2.40;;
55589;SDS011;41452;42.780;23.116;2023-05-23T14:44:54;4.97;;;3.10;;
55589;SDS011;41452;42.780;23.116;2023-05-23T14:47:20;4.85;;;2.20;;
55589;SDS011;41452;42.780;23.116;2023-05-23T14:49:45;5.90;;;2.40;;
55589;SDS011;41452;42.780;23.116;2023-05-23T14:52:11;5.97;;;2.90;;
55589;SDS011;41452;42.780;23.116;2023-05-23T14:54:37;5.97;;;3.08;;
55589;SDS011;41452;42.780;23.116;2023-05-23T14:57:07;5.07;;;2.70;;
55589;SDS011;41452;42.780;23.116;2023-05-23T14:59:33;12.27;;;2.65;;
55589;SDS011;41452;42.780;23.116;2023-05-23T15:01:58;5.00;;;2.40;;
55589;SDS011;41452;42.780;23.116;2023-05-23T15:04:24;9.70;;;2.97;;
55589;SDS011;41452;42.780;23.116;2023-05-23T15:06:49;4.68;;;2.70;;
55589;SDS011;41452;42.780;23.116;2023-05-23T15:09:15;3.72;;;2.47;;
55589;SDS011;41452;42.780;23.116;2023-05-23T15:11:42;7.40;;;2.80;;
55589;SDS011;41452;42.780;23.116;2023-05-23T15:14:09;6.78;;;2.28;;
55589;SDS011;41452;42.780;23.116;2023-05-23T15:16:35;6.28;;;2.58;;
55589;SDS011;41452;42.780;23.116;2023-05-23T15:19:01;6.07;;;2.97;;
55589;SDS011;41452;42.780;23.116;2023-05-23T15:21:27;9.30;;;2.72;;
55589;SDS011;41452;42.780;23.116;2023-05-23T15:23:53;11.18;;;3.40;;
55589;SDS011;41452;42.780;23.116;2023-05-23T15:26:18;7.35;;;2.72;;
55589;SDS011;41452;42.780;23.116;2023-05-23T15:28:44;5.70;;;2.47;;
55589;SDS011;41452;42.780;23.116;2023-05-23T15:31:09;7.82;;;2.50;;
55589;SDS011;41452;42.780;23.116;2023-05-23T15:33:34;4.90;;;2.50;;
55589;SDS011;41452;42.780;23.116;2023-05-23T15:36:00;7.38;;;2.40;;
55589;SDS011;41452;42.780;23.116;2023-05-23T15:38:26;5.03;;;2.63;;
55589;SDS011;41452;42.780;23.116;2023-05-23T15:40:51;4.85;;;2.13;;
55589;SDS011;41452;42.780;23.116;2023-05-23T15:43:18;5.50;;;2.63;;
55589;SDS011;41452;42.780;23.116;2023-05-23T15:45:44;5.28;;;2.75;;
55589;SDS011;41452;42.780;23.116;2023-05-23T15:48:09;4.45;;;2.00;;
55589;SDS011;41452;42.780;23.116;2023-05-23T15:50:35;5.60;;;2.40;;
55589;SDS011;41452;42.780;23.116;2023-05-23T15:53:00;4.78;;;2.50;;
55589;SDS011;41452;42.780;23.116;2023-05-23T15:55:26;5.43;;;2.33;;
55589;SDS011;41452;42.780;23.116;2023-05-23T15:57:51;5.57;;;2.20;;
55589;SDS011;41452;42.780;23.116;2023-05-23T16:00:16;5.40;;;2.67;;
55589;SDS011;41452;42.780;23.116;2023-05-23T16:02:42;5.70;;;2.92;;
55589;SDS011;41452;42.780;23.116;2023-05-23T16:05:08;7.65;;;2.40;;
55589;SDS011;41452;42.780;23.116;2023-05-23T16:07:33;4.72;;;2.45;;
55589;SDS011;41452;42.780;23.116;2023-05-23T16:09:58;3.97;;;2.70;;